Terminal Aerodrome Forecast
Issued by NWS Albany, NY

Home | Current Version | Previous Version | Text Only | Print | Product List | Glossary On
Versions: 1 2 3 4 5 6 7 8 9 10 11 12 13 14 15 16 17 18 19 20 21 22 23 24 25 26 27 28 29 30 31 32 33 34 35 36 37 38 39 40 41 42 43 44
901
FTUS41 KALY 212320
TAFPOU
TAF
KPOU 212320Z 2200/2224 00000KT P6SM SKC
     FM220200 00000KT 1 1/2SM BR VV002
     FM221400 03004KT P6SM BKN025
     FM221700 05006KT 6SM BR VCSH BKN015 OVC025 PROB30 2220/2224 3SM
      -DZ BR BKN009 OVC012=

USA.gov is the U.S. government's official web portal to all federal, state and local government web resources and services.